createdAt,value
2018-04-27T00:00:03.964Z,94813.32
2018-04-27T00:02:30.632Z,94812.19
2018-04-27T00:04:57.266Z,94808.08
2018-04-27T00:07:23.897Z,94813.34
2018-04-27T00:09:50.531Z,94807.41
2018-04-27T00:12:17.135Z,94810.63
2018-04-27T00:14:43.772Z,94805.62
2018-04-27T00:17:10.410Z,94806.31
2018-04-27T00:19:37.048Z,94806.28
2018-04-27T00:22:03.674Z,94809.44
2018-04-27T00:24:30.310Z,94801.85
2018-04-27T00:26:56.947Z,94802.78
2018-04-27T00:29:23.587Z,94803.36
2018-04-27T00:31:50.233Z,94803.73
2018-04-27T00:34:16.881Z,94810.57
2018-04-27T00:36:43.579Z,94813.35
2018-04-27T00:39:10.182Z,94818.22
2018-04-27T00:41:36.819Z,94818.54
2018-04-27T00:44:03.454Z,94822.65
2018-04-27T00:46:30.096Z,94833.39
2018-04-27T00:48:56.763Z,94831.60
2018-04-27T00:51:23.371Z,94838.58
2018-04-27T00:53:50.088Z,94842.34
2018-04-27T00:56:18.109Z,94848.22
2018-04-27T00:58:43.315Z,94845.53
2018-04-27T01:01:09.988Z,94843.04
2018-04-27T01:03:36.590Z,94848.08
2018-04-27T01:06:03.252Z,94843.67
2018-04-27T01:08:29.889Z,94843.67
2018-04-27T01:10:56.571Z,94846.45
2018-04-27T01:13:23.226Z,94841.81
2018-04-27T01:15:49.867Z,94839.23
2018-04-27T01:18:16.502Z,94845.44
2018-04-27T01:20:43.214Z,94845.34
2018-04-27T01:23:09.849Z,94843.78
2018-04-27T01:25:36.486Z,94843.64
2018-04-27T01:28:03.134Z,94849.86
2018-04-27T01:30:29.774Z,94847.05
2018-04-27T01:32:56.447Z,94846.61
2018-04-27T01:35:23.078Z,94845.69
2018-04-27T01:37:49.772Z,94849.86
2018-04-27T01:40:16.365Z,94845.05
2018-04-27T01:42:43.001Z,94843.34
2018-04-27T01:45:09.645Z,94842.69
2018-04-27T01:47:36.299Z,94838.73
2018-04-27T01:50:02.940Z,94842.52
2018-04-27T01:52:29.554Z,94843.44
2018-04-27T01:54:56.209Z,94839.27
2018-04-27T01:57:22.823Z,94838.02
2018-04-27T01:59:49.450Z,94841.39
2018-04-27T02:02:16.159Z,94837.39
2018-04-27T02:04:42.766Z,94834.34
2018-04-27T02:07:09.403Z,94829.88
2018-04-27T02:09:36.049Z,94823.04
2018-04-27T02:12:02.735Z,94821.28
2018-04-27T02:14:29.439Z,94825.45
2018-04-27T02:16:56.033Z,94821.77
2018-04-27T02:19:22.680Z,94823.30
2018-04-27T02:21:49.346Z,94827.09
2018-04-27T02:24:15.942Z,94833.14
2018-04-27T02:26:42.621Z,94836.39
2018-04-27T02:29:09.308Z,94836.18
2018-04-27T02:31:35.947Z,94846.71
2018-04-27T02:34:02.581Z,94854.30
2018-04-27T02:36:29.189Z,94862.08
2018-04-27T02:38:55.826Z,94864.02
2018-04-27T02:41:22.517Z,94875.34
2018-04-27T02:43:49.237Z,94876.78
2018-04-27T02:46:15.890Z,94883.73
2018-04-27T02:48:42.517Z,94886.18
2018-04-27T02:51:09.147Z,94893.51
2018-04-27T02:53:35.826Z,94899.48
2018-04-27T02:56:02.419Z,94891.16
2018-04-27T02:58:29.096Z,94888.19
2018-04-27T03:00:56.586Z,94886.91
2018-04-27T03:03:23.257Z,94885.71
2018-04-27T03:05:49.854Z,94885.71
2018-04-27T03:08:16.497Z,94893.80
2018-04-27T03:10:43.164Z,94894.68
2018-04-27T03:13:09.807Z,94896.40
2018-04-27T03:15:36.403Z,94896.72
2018-04-27T03:18:03.077Z,94902.58
2018-04-27T03:20:29.713Z,94897.97
2018-04-27T03:22:56.336Z,94884.95
2018-04-27T03:25:22.939Z,94900.69
2018-04-27T03:27:49.603Z,94904.52
2018-04-27T03:30:16.210Z,94901.42
2018-04-27T03:32:42.871Z,94901.27
2018-04-27T03:35:09.543Z,94904.21
2018-04-27T03:37:36.176Z,94922.05
2018-04-27T03:40:02.813Z,94918.00
2018-04-27T03:42:29.476Z,94918.55
2018-04-27T03:44:56.083Z,94912.81
2018-04-27T03:47:22.781Z,94915.05
2018-04-27T03:49:49.424Z,94924.73
2018-04-27T03:52:16.058Z,94928.02
2018-04-27T03:54:42.759Z,94932.19
2018-04-27T03:57:09.393Z,94939.14
2018-04-27T03:59:36.042Z,94939.44
2018-04-27T04:02:02.672Z,94948.73
2018-04-27T04:04:29.348Z,94968.81
2018-04-27T04:06:55.946Z,94979.88
2018-04-27T04:09:22.586Z,94979.31
2018-04-27T04:11:49.214Z,94979.11
2018-04-27T04:14:15.867Z,94989.96
2018-04-27T04:16:42.541Z,94995.86
2018-04-27T04:19:09.219Z,95003.99
2018-04-27T04:21:35.865Z,95011.02
2018-04-27T04:24:02.501Z,95023.11
2018-04-27T04:26:29.128Z,95017.34
2018-04-27T04:28:55.814Z,95021.77
2018-04-27T04:31:22.446Z,95024.41
2018-04-27T04:33:49.115Z,95029.66
2018-04-27T04:36:15.719Z,95022.55
2018-04-27T04:38:42.356Z,95029.78
2018-04-27T04:41:09.031Z,95027.73
2018-04-27T04:43:35.632Z,95023.23
2018-04-27T04:46:02.306Z,95028.13
2018-04-27T04:48:29.031Z,95025.58
2018-04-27T04:50:55.709Z,95031.55
2018-04-27T04:53:22.368Z,95019.59
2018-04-27T04:55:49.046Z,95020.23
2018-04-27T04:58:15.728Z,95018.06
2018-04-27T05:00:42.402Z,95027.66
2018-04-27T05:03:08.994Z,95028.22
2018-04-27T05:05:35.656Z,95020.64
2018-04-27T05:08:02.289Z,95028.10
2018-04-27T05:10:29.001Z,95029.35
2018-04-27T05:12:55.607Z,95032.41
2018-04-27T05:15:22.330Z,95030.20
2018-04-27T05:17:48.990Z,95037.40
2018-04-27T05:20:15.614Z,95035.02
2018-04-27T05:22:42.313Z,95045.70
2018-04-27T05:25:08.903Z,95046.36
2018-04-27T05:27:35.574Z,95050.34
2018-04-27T05:30:02.225Z,95052.58
2018-04-27T05:32:28.851Z,95049.30
2018-04-27T05:34:55.509Z,95052.39
2018-04-27T05:37:22.175Z,95055.83
2018-04-27T05:39:48.843Z,95057.65
2018-04-27T05:42:15.437Z,95063.45
2018-04-27T05:44:42.087Z,95065.91
2018-04-27T05:47:08.874Z,95075.13
2018-04-27T05:49:35.559Z,95078.00
2018-04-27T05:52:02.191Z,95074.02
2018-04-27T05:54:28.787Z,95077.95
2018-04-27T05:56:55.460Z,95082.55
2018-04-27T05:59:22.249Z,95084.53
2018-04-27T06:01:48.879Z,95083.20
2018-04-27T06:04:15.557Z,95085.82
2018-04-27T06:06:42.192Z,95085.56
2018-04-27T06:09:08.869Z,95098.27
2018-04-27T06:11:35.518Z,95091.64
2018-04-27T06:14:02.144Z,95087.70
2018-04-27T06:16:28.804Z,95100.45
2018-04-27T06:18:55.473Z,95099.88
2018-04-27T06:21:22.069Z,95102.13
2018-04-27T06:23:48.747Z,95106.80
2018-04-27T06:26:15.799Z,95111.47
2018-04-27T06:28:45.284Z,95118.23
2018-04-27T06:31:11.926Z,95118.53
2018-04-27T06:33:38.595Z,95125.57
2018-04-27T06:36:05.256Z,95125.45
2018-04-27T06:38:31.910Z,95099.48
2018-04-27T06:40:58.552Z,95118.87
2018-04-27T06:43:25.223Z,95123.06
2018-04-27T06:45:52.848Z,95126.20
2018-04-27T06:48:19.484Z,95123.88
2018-04-27T06:50:46.231Z,95122.87
2018-04-27T06:53:12.869Z,95128.24
2018-04-27T06:55:39.616Z,95133.01
2018-04-27T06:58:06.255Z,95139.83
2018-04-27T07:00:32.868Z,95143.20
2018-04-27T07:02:59.559Z,95138.87
2018-04-27T07:05:26.237Z,95140.22
2018-04-27T07:07:52.880Z,95133.68
2018-04-27T07:10:19.555Z,95128.42
2018-04-27T07:12:46.383Z,95127.17
2018-04-27T07:15:13.024Z,95135.72
2018-04-27T07:17:39.770Z,95132.38
2018-04-27T07:20:06.386Z,95135.28
2018-04-27T07:22:33.064Z,95134.95
2018-04-27T07:24:59.732Z,95140.85
2018-04-27T07:27:26.401Z,95129.58
2018-04-27T07:29:53.077Z,95136.87
2018-04-27T07:32:19.689Z,95137.80
2018-04-27T07:34:46.419Z,95146.25
2018-04-27T07:37:13.079Z,95140.25
2018-04-27T07:39:39.799Z,95142.82
2018-04-27T07:42:06.386Z,95133.66
2018-04-27T07:44:33.022Z,95144.13
2018-04-27T07:46:59.737Z,95144.91
2018-04-27T07:49:26.351Z,95142.02
2018-04-27T07:51:53.006Z,95139.92
2018-04-27T07:54:19.638Z,95146.14
2018-04-27T07:56:46.369Z,95142.11
2018-04-27T07:59:13.011Z,95145.98
2018-04-27T08:01:39.655Z,95150.12
2018-04-27T08:04:06.589Z,95144.12
2018-04-27T08:06:33.204Z,95143.02
2018-04-27T08:08:59.923Z,95145.42
2018-04-27T08:11:26.658Z,95144.42
2018-04-27T08:13:53.346Z,95149.62
2018-04-27T08:16:22.616Z,95142.81
2018-04-27T08:18:49.295Z,95143.98
2018-04-27T08:21:15.935Z,95144.38
2018-04-27T08:23:42.627Z,95144.05
2018-04-27T08:26:09.301Z,95142.39
2018-04-27T08:28:35.983Z,95148.32
2018-04-27T08:31:02.634Z,95141.72
2018-04-27T08:33:29.304Z,95144.52
2018-04-27T08:35:55.938Z,95140.08
2018-04-27T08:38:22.578Z,95144.25
2018-04-27T08:40:49.210Z,95137.23
2018-04-27T08:43:15.877Z,95138.16
2018-04-27T08:45:42.533Z,95131.88
2018-04-27T08:48:09.165Z,95135.33
2018-04-27T08:50:35.908Z,95134.06
2018-04-27T08:53:02.445Z,95141.27
2018-04-27T08:55:29.081Z,95136.66
2018-04-27T08:57:55.717Z,95139.99
2018-04-27T09:00:22.458Z,95147.86
2018-04-27T09:02:49.231Z,95147.29
2018-04-27T09:05:15.817Z,95138.44
2018-04-27T09:07:42.461Z,95145.42
2018-04-27T09:10:09.094Z,95137.97
2018-04-27T09:12:35.826Z,95148.45
2018-04-27T09:15:02.428Z,95142.44
2018-04-27T09:17:29.091Z,95145.00
2018-04-27T09:19:55.780Z,95142.59
2018-04-27T09:22:22.414Z,95137.95
2018-04-27T09:24:49.063Z,95143.07
2018-04-27T09:27:16.998Z,95144.41
2018-04-27T09:29:42.356Z,95138.89
2018-04-27T09:32:09.019Z,95144.09
2018-04-27T09:34:35.704Z,95142.78
2018-04-27T09:37:02.294Z,95142.78
2018-04-27T09:39:28.953Z,95140.79
2018-04-27T09:41:55.642Z,95143.03
2018-04-27T09:44:22.297Z,95135.74
2018-04-27T09:46:48.955Z,95137.95
2018-04-27T09:49:15.579Z,95136.18
2018-04-27T09:51:42.224Z,95133.98
2018-04-27T09:54:08.856Z,95140.64
2018-04-27T09:56:35.475Z,95127.93
2018-04-27T09:59:02.139Z,95136.34
2018-04-27T10:01:28.844Z,95133.17
2018-04-27T10:03:55.452Z,95134.25
2018-04-27T10:06:22.092Z,95131.87
2018-04-27T10:08:48.720Z,95128.30
2018-04-27T10:11:15.382Z,95124.25
2018-04-27T10:13:42.020Z,95127.62
2018-04-27T10:16:08.657Z,95128.74
2018-04-27T10:18:35.280Z,95120.25
2018-04-27T10:21:01.929Z,95115.22
2018-04-27T10:23:28.591Z,95114.77
2018-04-27T10:25:55.295Z,95110.16
2018-04-27T10:28:21.946Z,95103.69
2018-04-27T10:30:48.627Z,95097.45
2018-04-27T10:33:15.559Z,95103.13
2018-04-27T10:35:42.166Z,95097.17
2018-04-27T10:38:08.902Z,95102.84
2018-04-27T10:40:35.495Z,95104.23
2018-04-27T10:43:02.503Z,95102.69
2018-04-27T10:45:29.102Z,95096.30
2018-04-27T10:47:55.746Z,95088.77
2018-04-27T10:50:22.443Z,95087.23
2018-04-27T10:52:48.992Z,95083.16
2018-04-27T10:55:15.624Z,95085.41
2018-04-27T10:57:42.268Z,95081.02
2018-04-27T11:00:08.992Z,95084.36
2018-04-27T11:02:35.623Z,95082.70
2018-04-27T11:05:02.307Z,95077.21
2018-04-27T11:07:28.945Z,95082.16
2018-04-27T11:09:55.623Z,95088.34
2018-04-27T11:12:22.310Z,95078.48
2018-04-27T11:14:48.958Z,95081.31
2018-04-27T11:17:15.591Z,95076.37
2018-04-27T11:19:42.331Z,95075.17
2018-04-27T11:22:09.004Z,95072.16
2018-04-27T11:24:35.737Z,95074.30
2018-04-27T11:27:02.412Z,95065.64
2018-04-27T11:29:29.028Z,95066.52
2018-04-27T11:31:55.671Z,95062.22
2018-04-27T11:34:22.335Z,95064.38
2018-04-27T11:36:49.028Z,95055.53
2018-04-27T11:39:15.671Z,95063.79
2018-04-27T11:41:42.315Z,95062.11
2018-04-27T11:44:08.990Z,95059.03
2018-04-27T11:46:35.616Z,95058.24
2018-04-27T11:49:02.348Z,95061.30
2018-04-27T11:51:29.066Z,95059.61
2018-04-27T11:53:55.863Z,95058.52
2018-04-27T11:56:22.470Z,95056.97
2018-04-27T11:58:50.142Z,95051.20
2018-04-27T12:01:16.777Z,95052.20
2018-04-27T12:03:43.421Z,95047.86
2018-04-27T12:06:10.192Z,95053.70
2018-04-27T12:08:36.883Z,95054.56
2018-04-27T12:11:03.564Z,95048.27
2018-04-27T12:13:30.196Z,95046.95
2018-04-27T12:15:56.840Z,95041.52
2018-04-27T12:18:23.594Z,95042.76
2018-04-27T12:20:50.195Z,95035.23
2018-04-27T12:23:16.853Z,95034.50
2018-04-27T12:25:43.529Z,95030.05
2018-04-27T12:28:10.159Z,95031.25
2018-04-27T12:30:37.846Z,95025.66
2018-04-27T12:33:04.528Z,95029.16
2018-04-27T12:35:31.126Z,95022.30
2018-04-27T12:37:57.847Z,95019.55
2018-04-27T12:40:24.497Z,95015.27
2018-04-27T12:42:51.138Z,95009.32
2018-04-27T12:45:17.794Z,95017.44
2018-04-27T12:47:44.440Z,95008.98
2018-04-27T12:50:11.084Z,95008.05
2018-04-27T12:52:37.726Z,95000.77
2018-04-27T12:55:04.394Z,95001.49
2018-04-27T12:57:31.086Z,94995.92
2018-04-27T12:59:57.805Z,94996.82
2018-04-27T13:02:24.400Z,95000.14
2018-04-27T13:04:51.054Z,94997.69
2018-04-27T13:07:17.727Z,94984.56
2018-04-27T13:09:44.410Z,94973.37
2018-04-27T13:12:11.067Z,94972.95
2018-04-27T13:14:37.715Z,94976.36
2018-04-27T13:17:04.408Z,94977.08
2018-04-27T13:19:31.052Z,94973.59
2018-04-27T13:21:57.800Z,94965.13
2018-04-27T13:24:24.745Z,94969.45
2018-04-27T13:26:51.706Z,94961.54
2018-04-27T13:29:18.360Z,94953.29
2018-04-27T13:31:44.953Z,94952.19
2018-04-27T13:34:14.456Z,94950.68
2018-04-27T13:36:41.093Z,94950.45
2018-04-27T13:39:07.745Z,94948.34
2018-04-27T13:41:34.411Z,94946.80
2018-04-27T13:44:01.039Z,94952.52
2018-04-27T13:46:29.005Z,94953.80
2018-04-27T13:48:54.268Z,94960.07
2018-04-27T13:51:20.917Z,94955.13
2018-04-27T13:53:47.561Z,94961.23
2018-04-27T13:56:14.282Z,94963.64
2018-04-27T13:58:40.954Z,94962.93
2018-04-27T14:01:07.629Z,94960.63
2018-04-27T14:03:34.303Z,94969.56
2018-04-27T14:06:00.963Z,94963.47
2018-04-27T14:08:27.671Z,94959.35
2018-04-27T14:10:54.349Z,94959.35
2018-04-27T14:13:20.964Z,94961.31
2018-04-27T14:15:47.627Z,94959.05
2018-04-27T14:18:14.264Z,94960.38
2018-04-27T14:20:40.894Z,94961.77
2018-04-27T14:23:07.571Z,94955.73
2018-04-27T14:25:34.214Z,94959.76
2018-04-27T14:28:00.899Z,94961.88
2018-04-27T14:30:27.490Z,94961.08
2018-04-27T14:32:54.173Z,94966.62
2018-04-27T14:35:20.821Z,94974.50
2018-04-27T14:37:47.500Z,94977.09
2018-04-27T14:40:14.111Z,94975.12
2018-04-27T14:42:40.796Z,94977.87
2018-04-27T14:45:07.432Z,94970.23
2018-04-27T14:47:34.106Z,94971.23
2018-04-27T14:50:00.751Z,94970.13
2018-04-27T14:52:27.427Z,94968.09
2018-04-27T14:54:54.075Z,94968.46
2018-04-27T14:57:20.735Z,94973.03
2018-04-27T14:59:47.363Z,94970.52
2018-04-27T15:02:14.044Z,94977.34
2018-04-27T15:04:40.712Z,94972.98
2018-04-27T15:07:07.383Z,94977.27
2018-04-27T15:09:34.023Z,94975.80
2018-04-27T15:12:00.760Z,94974.17
2018-04-27T15:14:27.331Z,94974.42
2018-04-27T15:16:53.959Z,94971.17
2018-04-27T15:19:20.600Z,94982.65
2018-04-27T15:21:47.195Z,94977.91
2018-04-27T15:24:13.913Z,94972.98
2018-04-27T15:26:40.495Z,94972.31
2018-04-27T15:29:07.128Z,94980.28
2018-04-27T15:31:33.762Z,94966.14
2018-04-27T15:34:01.385Z,94976.48
2018-04-27T15:36:28.019Z,94976.30
2018-04-27T15:38:54.663Z,94977.07
2018-04-27T15:41:21.301Z,94972.20
2018-04-27T15:43:47.970Z,94971.77
2018-04-27T15:46:14.575Z,94981.89
2018-04-27T15:48:41.251Z,94987.06
2018-04-27T15:51:07.864Z,94983.08
2018-04-27T15:53:34.531Z,94982.16
2018-04-27T15:56:01.138Z,94984.24
2018-04-27T15:58:27.820Z,94989.00
2018-04-27T16:00:54.436Z,94990.95
2018-04-27T16:03:21.114Z,94994.64
2018-04-27T16:05:47.746Z,94991.28
2018-04-27T16:08:14.350Z,94994.67
2018-04-27T16:10:41.015Z,95002.91
2018-04-27T16:13:07.695Z,95006.13
2018-04-27T16:15:34.433Z,95013.20
2018-04-27T16:18:01.140Z,95016.53
2018-04-27T16:20:27.764Z,95022.31
2018-04-27T16:22:54.449Z,95014.39
2018-04-27T16:25:21.073Z,95015.63
2018-04-27T16:27:47.743Z,95023.66
2018-04-27T16:30:14.347Z,95021.19
2018-04-27T16:32:41.092Z,95028.48
2018-04-27T16:35:07.718Z,95033.82
2018-04-27T16:37:34.349Z,95039.77
2018-04-27T16:40:01.084Z,95043.22
2018-04-27T16:42:27.715Z,95047.66
2018-04-27T16:44:54.308Z,95048.61
2018-04-27T16:47:20.983Z,95046.41
2018-04-27T16:49:47.705Z,95050.47
2018-04-27T16:52:14.279Z,95054.94
2018-04-27T16:54:40.940Z,95056.70
2018-04-27T16:57:07.592Z,95062.84
2018-04-27T16:59:34.196Z,95060.47
2018-04-27T17:02:00.862Z,95063.22
2018-04-27T17:04:27.522Z,95070.27
2018-04-27T17:06:54.165Z,95071.92
2018-04-27T17:09:20.827Z,95081.94
2018-04-27T17:11:47.475Z,95081.16
2018-04-27T17:14:14.143Z,95084.01
2018-04-27T17:16:40.777Z,95091.84
2018-04-27T17:19:07.419Z,95094.18
2018-04-27T17:21:34.092Z,95093.17
2018-04-27T17:24:00.691Z,95100.88
2018-04-27T17:26:28.711Z,95100.89
2018-04-27T17:28:53.999Z,95103.55
2018-04-27T17:31:20.716Z,95101.81
2018-04-27T17:33:47.345Z,95105.81
2018-04-27T17:36:13.967Z,95113.88
2018-04-27T17:38:40.619Z,95111.22
2018-04-27T17:41:07.290Z,95113.77
2018-04-27T17:43:33.967Z,95103.81
2018-04-27T17:46:00.562Z,95109.64
2018-04-27T17:48:27.269Z,95119.19
2018-04-27T17:50:53.939Z,95115.74
2018-04-27T17:53:20.611Z,95121.30
2018-04-27T17:55:47.231Z,95122.50
2018-04-27T17:58:13.851Z,95125.45
2018-04-27T18:00:40.462Z,95127.59
2018-04-27T18:03:07.136Z,95135.67
2018-04-27T18:05:33.737Z,95145.23
2018-04-27T18:08:00.381Z,95148.51
2018-04-27T18:10:27.053Z,95161.84
2018-04-27T18:12:53.687Z,95167.92
2018-04-27T18:15:20.332Z,95164.70
2018-04-27T18:17:46.989Z,95165.72
2018-04-27T18:20:13.570Z,95164.98
2018-04-27T18:22:40.200Z,95174.78
2018-04-27T18:25:06.867Z,95175.70
2018-04-27T18:27:33.502Z,95176.48
2018-04-27T18:30:00.107Z,95174.84
2018-04-27T18:32:26.743Z,95174.41
2018-04-27T18:34:53.416Z,95172.22
2018-04-27T18:37:20.023Z,95172.45
2018-04-27T18:39:46.697Z,95182.71
2018-04-27T18:42:13.335Z,95185.09
2018-04-27T18:44:39.973Z,95188.05
2018-04-27T18:47:06.609Z,95195.77
2018-04-27T18:49:33.221Z,95201.07
2018-04-27T18:51:59.885Z,95201.92
2018-04-27T18:54:26.522Z,95208.13
2018-04-27T18:56:53.151Z,95213.58
2018-04-27T18:59:19.789Z,95214.76
2018-04-27T19:01:46.399Z,95218.81
2018-04-27T19:04:13.085Z,95212.59
2018-04-27T19:06:39.723Z,95214.31
2018-04-27T19:09:06.314Z,95217.22
2018-04-27T19:11:32.984Z,95217.49
2018-04-27T19:13:59.681Z,95219.69
2018-04-27T19:16:26.356Z,95220.31
2018-04-27T19:18:52.966Z,95221.84
2018-04-27T19:21:19.630Z,95219.58
2018-04-27T19:23:46.320Z,95217.69
2018-04-27T19:26:12.975Z,95215.66
2018-04-27T19:28:39.642Z,95218.25
2018-04-27T19:31:06.280Z,95212.66
2018-04-27T19:33:32.929Z,95214.83
2018-04-27T19:35:59.610Z,95223.38
2018-04-27T19:38:26.317Z,95220.83
2018-04-27T19:40:52.990Z,95224.63
2018-04-27T19:43:19.638Z,95221.79
2018-04-27T19:45:46.279Z,95221.65
2018-04-27T19:48:12.913Z,95222.17
2018-04-27T19:50:39.553Z,95221.20
2018-04-27T19:53:06.187Z,95226.30
2018-04-27T19:55:32.830Z,95213.45
2018-04-27T19:57:59.531Z,95220.02
2018-04-27T20:00:26.164Z,95220.97
2018-04-27T20:02:52.824Z,95221.20
2018-04-27T20:05:19.584Z,95220.69
2018-04-27T20:07:46.250Z,95223.78
2018-04-27T20:10:12.935Z,95221.77
2018-04-27T20:12:39.596Z,95219.05
2018-04-27T20:15:06.232Z,95221.58
2018-04-27T20:17:32.908Z,95221.70
2018-04-27T20:19:59.551Z,95221.20
2018-04-27T20:22:26.199Z,95224.03
2018-04-27T20:24:52.871Z,95231.63
2018-04-27T20:27:19.508Z,95229.61
2018-04-27T20:29:46.120Z,95233.14
2018-04-27T20:32:12.783Z,95237.73
2018-04-27T20:34:39.377Z,95230.09
2018-04-27T20:37:06.091Z,95233.59
2018-04-27T20:39:32.676Z,95230.48
2018-04-27T20:41:59.392Z,95235.78
2018-04-27T20:44:26.101Z,95232.50
2018-04-27T20:46:52.626Z,95229.59
2018-04-27T20:49:19.304Z,95234.86
2018-04-27T20:51:45.904Z,95234.48
2018-04-27T20:54:12.577Z,95233.76
2018-04-27T20:56:39.209Z,95241.35
2018-04-27T20:59:06.485Z,95236.68
2018-04-27T21:01:33.162Z,95238.78
2018-04-27T21:03:59.797Z,95229.59
2018-04-27T21:06:26.435Z,95233.82
2018-04-27T21:08:53.105Z,95229.51
2018-04-27T21:11:19.749Z,95238.23
2018-04-27T21:13:46.386Z,95239.89
2018-04-27T21:16:13.056Z,95234.34
2018-04-27T21:18:39.749Z,95234.45
2018-04-27T21:21:06.422Z,95231.41
2018-04-27T21:23:33.102Z,95235.08
2018-04-27T21:25:59.794Z,95235.71
2018-04-27T21:33:37.884Z,95239.01
2018-04-27T21:36:04.483Z,95233.34
2018-04-27T21:38:31.154Z,95237.81
2018-04-27T21:40:57.808Z,95241.86
2018-04-27T21:46:00.114Z,95245.66
2018-04-27T21:48:26.740Z,95254.01
2018-04-27T21:50:53.408Z,95245.66
2018-04-27T21:53:20.035Z,95250.13
2018-04-27T21:55:46.681Z,95257.47
2018-04-27T21:58:13.358Z,95251.48
2018-04-27T22:00:40.039Z,95256.79
2018-04-27T22:03:06.679Z,95260.47
2018-04-27T22:05:33.317Z,95262.33
2018-04-27T22:07:59.951Z,95262.42
2018-04-27T22:10:26.624Z,95263.49
2018-04-27T22:12:53.292Z,95264.08
2018-04-27T22:15:19.889Z,95268.26
2018-04-27T22:17:46.535Z,95266.84
2018-04-27T22:20:13.208Z,95269.38
2018-04-27T22:22:39.815Z,95264.98
2018-04-27T22:25:06.523Z,95274.35
2018-04-27T22:27:33.133Z,95277.94
2018-04-27T22:29:59.794Z,95277.55
2018-04-27T22:32:26.750Z,95280.36
2018-04-27T22:34:53.378Z,95279.16
2018-04-27T22:37:20.035Z,95281.61
2018-04-27T22:39:46.689Z,95285.15
2018-04-27T22:42:13.356Z,95284.34
2018-04-27T22:44:40.051Z,95292.63
2018-04-27T22:47:06.694Z,95285.75
2018-04-27T22:49:33.353Z,95281.78
2018-04-27T22:52:00.038Z,95285.41
2018-04-27T22:54:26.677Z,95284.47
2018-04-27T22:56:53.275Z,95282.02
2018-04-27T22:59:19.918Z,95282.25
2018-04-27T23:01:46.591Z,95290.68
2018-04-27T23:04:13.241Z,95289.55
2018-04-27T23:06:39.870Z,95290.42
2018-04-27T23:09:06.549Z,95289.70
2018-04-27T23:11:33.153Z,95292.11
2018-04-27T23:13:59.797Z,95283.05
2018-04-27T23:16:26.448Z,95283.52
2018-04-27T23:18:53.152Z,95279.98
2018-04-27T23:21:19.751Z,95291.45
2018-04-27T23:23:46.383Z,95288.70
2018-04-27T23:26:13.058Z,95290.02
2018-04-27T23:28:39.728Z,95291.02
2018-04-27T23:31:06.455Z,95287.18
2018-04-27T23:33:33.066Z,95296.97
2018-04-27T23:35:59.678Z,95300.51
2018-04-27T23:38:26.389Z,95297.77
2018-04-27T23:40:52.985Z,95295.11
2018-04-27T23:43:19.667Z,95300.39
2018-04-27T23:45:46.310Z,95297.52
2018-04-27T23:48:12.982Z,95292.34
2018-04-27T23:50:39.610Z,95292.72
2018-04-27T23:53:06.214Z,95291.83
2018-04-27T23:55:32.846Z,95301.43
2018-04-27T23:57:59.521Z,95298.86
